»·PEaware :: DCM718 KFLG-KSBP

DCM718 :: KFLG-KSBP

FLIGHT INFORMATION

Flight Status: Arrived
Operator: DotCom
More flights by this operator :: More flights under this callsign
Pilot: Tyler J. (19619)
Aircraft: BRITISH AERO RJ-70
(RJ70)
More flights by this aircraft type
Origin: KFLG Flagstaff Pulliam
United States
Destination: KSBP San Luis Co Regl
United States
More flights between these airports :: More routes between these airports
Route: +OATES V12 EED J6 PMD
File this flight plan on PilotEdge
Remarks:
Altitude:
(Current/Filed)
34,000ft
Speed:
(Current/Filed)
430kts
Departed: 09-Feb-19 07:31 PM
Arrived: 09-Feb-19 09:08 PM
Distance/Time
Traveled:
440nm/1:37
Distance/Time
To Go:
Arrived

Flight Plot

Page will automatically refresh every two minutes.

Flight plan parsing failed; only flown route is shown


Map Options




Map Legend


Flown Route
Filed Route
Departure Airport
Arrival Airport
Navaid (VOR, NDB)
Fix

Horizontal Profiles

Position Reports

Time Latitude Longitude Heading Altitude Ground
Speed
09-Feb-19 19:12 35.134142 -111.677750 339 7019ft 0kts
09-Feb-19 19:13 35.134142 -111.677750 339 7019ft 0kts
09-Feb-19 19:14 35.134142 -111.677750 339 7019ft 0kts
09-Feb-19 19:15 35.134144 -111.677751 339 7019ft 0kts
09-Feb-19 19:16 35.134147 -111.677752 339 7019ft 0kts
09-Feb-19 19:17 35.134149 -111.677753 339 7019ft 0kts
09-Feb-19 19:18 35.134151 -111.677754 339 7019ft 0kts
09-Feb-19 19:19 35.134153 -111.677755 339 7019ft 0kts
09-Feb-19 19:20 35.134247 -111.677376 93 7019ft 0kts
09-Feb-19 19:21 35.134247 -111.677367 93 7019ft 0kts
09-Feb-19 19:21 35.134246 -111.677364 93 7019ft 0kts
09-Feb-19 19:23 35.134246 -111.677360 93 7019ft 0kts
09-Feb-19 19:24 35.134246 -111.677353 93 7019ft 0kts
09-Feb-19 19:24 35.134246 -111.677350 93 7019ft 0kts
09-Feb-19 19:25 35.136806 -111.674050 40 7019ft 18kts
09-Feb-19 19:26 35.141752 -111.668801 34 7019ft 32kts
09-Feb-19 19:28 35.145854 -111.664312 64 7019ft 0kts
09-Feb-19 19:28 35.145855 -111.664310 64 7019ft 0kts
09-Feb-19 19:29 35.145459 -111.663803 220 7019ft 6kts
09-Feb-19 19:30 35.129830 -111.680323 221 7345ft 159kts
09-Feb-19 19:31 35.080938 -111.691538 183 9801ft 227kts
09-Feb-19 19:32 35.013921 -111.696586 183 11546ft 249kts
09-Feb-19 19:33 34.934725 -111.703286 184 13384ft 310kts
09-Feb-19 19:34 34.874328 -111.765589 259 16577ft 324kts
09-Feb-19 19:35 34.883832 -111.875843 272 19688ft 327kts
09-Feb-19 19:36 34.888707 -111.985415 265 22292ft 324kts
09-Feb-19 19:37 34.884998 -112.095763 263 24416ft 328kts
09-Feb-19 19:38 34.880276 -112.207140 263 26601ft 324kts
09-Feb-19 19:39 34.876567 -112.315227 263 28744ft 316kts
09-Feb-19 19:40 34.873889 -112.421038 262 30632ft 309kts
09-Feb-19 19:41 34.870968 -112.523875 261 32550ft 297kts
09-Feb-19 19:42 34.867297 -112.623087 260 33950ft 296kts
09-Feb-19 19:43 34.862310 -112.728003 261 34035ft 321kts
09-Feb-19 19:44 34.857433 -112.837940 261 34032ft 328kts
09-Feb-19 19:45 34.852287 -112.948827 260 34031ft 326kts
09-Feb-19 19:46 34.847098 -113.058890 260 34030ft 325kts
09-Feb-19 19:47 34.841902 -113.168792 260 34031ft 325kts
09-Feb-19 19:48 34.836520 -113.278746 260 34029ft 325kts
09-Feb-19 19:49 34.831204 -113.388361 260 34029ft 324kts
09-Feb-19 19:50 34.825914 -113.498067 260 34026ft 325kts
09-Feb-19 19:51 34.820848 -113.605165 260 34027ft 325kts
09-Feb-19 19:52 34.815713 -113.714853 260 34025ft 325kts
09-Feb-19 19:53 34.809867 -113.824377 260 34025ft 325kts
09-Feb-19 19:54 34.803837 -113.934369 260 34023ft 325kts
09-Feb-19 19:55 34.797776 -114.044404 260 34023ft 325kts
09-Feb-19 19:56 34.791664 -114.154225 260 34023ft 326kts
09-Feb-19 19:57 34.785387 -114.264394 260 34021ft 326kts
09-Feb-19 19:58 34.779067 -114.374194 260 34022ft 326kts
09-Feb-19 19:59 34.774015 -114.484372 263 34021ft 328kts
09-Feb-19 20:00 34.777373 -114.595914 265 34022ft 330kts
09-Feb-19 20:01 34.780741 -114.707718 264 34021ft 330kts
09-Feb-19 20:02 34.782939 -114.818975 264 34022ft 329kts
09-Feb-19 20:03 34.785020 -114.930722 264 34018ft 330kts
09-Feb-19 20:04 34.787072 -115.042054 264 34020ft 330kts
09-Feb-19 20:05 34.789061 -115.153543 264 34017ft 330kts
09-Feb-19 20:06 34.790846 -115.265493 264 34021ft 330kts
09-Feb-19 20:07 34.792603 -115.377345 265 34018ft 331kts
09-Feb-19 20:08 34.794238 -115.489050 264 34022ft 331kts
09-Feb-19 20:09 34.795713 -115.598463 265 34023ft 332kts
09-Feb-19 20:10 34.797165 -115.710825 265 34027ft 333kts
09-Feb-19 20:11 34.798454 -115.823840 265 34030ft 334kts
09-Feb-19 20:12 34.799726 -115.937015 265 34034ft 335kts
09-Feb-19 20:13 34.800881 -116.050893 265 34035ft 336kts
09-Feb-19 20:14 34.801970 -116.164593 265 34037ft 337kts
09-Feb-19 20:15 34.802905 -116.278826 265 34037ft 337kts
09-Feb-19 20:16 34.803715 -116.392921 265 34036ft 337kts
09-Feb-19 20:17 34.799348 -116.506372 259 34036ft 334kts
09-Feb-19 20:18 34.787338 -116.618141 258 34034ft 333kts
09-Feb-19 20:19 34.775638 -116.730513 259 34033ft 334kts
09-Feb-19 20:20 34.764680 -116.842615 259 34027ft 333kts
09-Feb-19 20:21 34.753338 -116.954414 259 34030ft 333kts
09-Feb-19 20:22 34.741900 -117.066013 259 34024ft 333kts
09-Feb-19 20:23 34.730288 -117.177808 259 34027ft 332kts
09-Feb-19 20:24 34.718677 -117.289303 259 34018ft 331kts
09-Feb-19 20:25 34.706991 -117.400155 259 34018ft 330kts
09-Feb-19 20:26 34.695209 -117.510658 259 34013ft 329kts
09-Feb-19 20:27 34.683409 -117.620657 259 34014ft 327kts
09-Feb-19 20:28 34.671574 -117.730183 259 34014ft 326kts
09-Feb-19 20:29 34.659652 -117.839465 259 34007ft 325kts
09-Feb-19 20:30 34.647356 -117.950309 260 32284ft 331kts
09-Feb-19 20:31 34.639352 -118.060614 271 30287ft 331kts
09-Feb-19 20:32 34.663246 -118.167199 281 28345ft 338kts
09-Feb-19 20:33 34.692651 -118.274664 280 26342ft 329kts
09-Feb-19 20:34 34.718766 -118.379634 280 24343ft 320kts
09-Feb-19 20:35 34.743506 -118.482264 280 24052ft 318kts
09-Feb-19 20:36 34.768390 -118.586536 280 24063ft 322kts
09-Feb-19 20:37 34.793369 -118.691369 280 24073ft 322kts
09-Feb-19 20:38 34.818306 -118.795945 280 24072ft 322kts
09-Feb-19 20:39 34.843247 -118.900542 280 24066ft 321kts
09-Feb-19 20:40 34.868204 -119.005026 280 24071ft 321kts
09-Feb-19 20:41 34.893413 -119.109269 281 24074ft 321kts
09-Feb-19 20:42 34.924042 -119.212126 284 24076ft 323kts
09-Feb-19 20:43 34.956550 -119.314725 284 24078ft 323kts
09-Feb-19 20:44 34.988912 -119.416513 284 24074ft 314kts
09-Feb-19 20:45 35.019225 -119.508567 284 24076ft 278kts
09-Feb-19 20:46 35.046758 -119.595142 282 24088ft 271kts
09-Feb-19 20:47 35.072338 -119.681461 282 24089ft 270kts
09-Feb-19 20:48 35.097900 -119.767663 282 24088ft 270kts
09-Feb-19 20:49 35.123341 -119.853944 282 24097ft 269kts
09-Feb-19 20:50 35.148698 -119.940134 282 24098ft 269kts
09-Feb-19 20:51 35.174035 -120.026331 282 24027ft 271kts
09-Feb-19 20:52 35.198592 -120.111898 282 22110ft 275kts
09-Feb-19 20:53 35.222653 -120.198281 283 19907ft 260kts
09-Feb-19 20:54 35.195456 -120.267307 203 17698ft 286kts
09-Feb-19 20:55 35.112970 -120.261753 183 15511ft 299kts
09-Feb-19 20:56 35.031626 -120.248718 182 13309ft 288kts
09-Feb-19 20:57 34.959065 -120.256609 229 11216ft 244kts
09-Feb-19 20:58 34.970170 -120.326398 310 9230ft 242kts
09-Feb-19 20:59 35.017755 -120.376731 313 7223ft 218kts
09-Feb-19 21:00 35.061403 -120.422877 313 5295ft 213kts
09-Feb-19 21:01 35.103112 -120.463798 326 4629ft 178kts
09-Feb-19 21:02 35.147942 -120.494393 323 3415ft 181kts
09-Feb-19 21:03 35.175546 -120.529487 303 2996ft 127kts
09-Feb-19 21:04 35.195289 -120.566555 303 2042ft 131kts
09-Feb-19 21:05 35.214983 -120.601341 303 1026ft 119kts
09-Feb-19 21:06 35.233641 -120.634464 304 240ft 110kts
09-Feb-19 21:07 35.241201 -120.646995 22 220ft 9kts
09-Feb-19 21:08 35.241378 -120.646373 125 220ft 9kts
09-Feb-19 21:09 35.238501 -120.641252 127 220ft 12kts
09-Feb-19 21:11 35.238757 -120.640920 345 220ft 0kts
09-Feb-19 21:12 35.238757 -120.640920 345 220ft 0kts

Navigation Log

Ident Type
Flight plan parsing failed, navigation log unavailable